sensor_id;sensor_type;location;lat;lon;timestamp;P1;durP1;ratioP1;P2;durP2;ratioP2
54795;SDS011;40693;43.884;20.340;2023-09-19T00:00:19;12.90;;;10.05;;
54795;SDS011;40693;43.884;20.340;2023-09-19T00:02:58;14.85;;;10.20;;
54795;SDS011;40693;43.884;20.340;2023-09-19T00:05:27;17.70;;;11.43;;
54795;SDS011;40693;43.884;20.340;2023-09-19T00:07:54;14.93;;;9.77;;
54795;SDS011;40693;43.884;20.340;2023-09-19T00:10:23;15.75;;;10.23;;
54795;SDS011;40693;43.884;20.340;2023-09-19T00:12:53;13.93;;;9.70;;
54795;SDS011;40693;43.884;20.340;2023-09-19T00:15:20;14.75;;;10.50;;
54795;SDS011;40693;43.884;20.340;2023-09-19T00:17:51;14.52;;;11.27;;
54795;SDS011;40693;43.884;20.340;2023-09-19T00:20:19;13.75;;;10.73;;
54795;SDS011;40693;43.884;20.340;2023-09-19T00:22:48;17.90;;;9.80;;
54795;SDS011;40693;43.884;20.340;2023-09-19T00:25:15;15.13;;;10.88;;
54795;SDS011;40693;43.884;20.340;2023-09-19T00:27:42;17.67;;;10.95;;
54795;SDS011;40693;43.884;20.340;2023-09-19T00:30:11;20.05;;;10.52;;
54795;SDS011;40693;43.884;20.340;2023-09-19T00:32:49;15.52;;;11.23;;
54795;SDS011;40693;43.884;20.340;2023-09-19T00:35:20;12.13;;;10.23;;
54795;SDS011;40693;43.884;20.340;2023-09-19T00:37:48;14.93;;;10.10;;
54795;SDS011;40693;43.884;20.340;2023-09-19T00:40:14;14.52;;;11.07;;
54795;SDS011;40693;43.884;20.340;2023-09-19T00:42:44;15.82;;;10.25;;
54795;SDS011;40693;43.884;20.340;2023-09-19T00:45:12;15.63;;;10.70;;
54795;SDS011;40693;43.884;20.340;2023-09-19T00:47:39;14.02;;;10.75;;
54795;SDS011;40693;43.884;20.340;2023-09-19T00:50:07;12.77;;;10.00;;
54795;SDS011;40693;43.884;20.340;2023-09-19T00:52:35;14.27;;;10.15;;
54795;SDS011;40693;43.884;20.340;2023-09-19T00:55:08;14.20;;;9.80;;
54795;SDS011;40693;43.884;20.340;2023-09-19T00:57:35;11.10;;;9.10;;
54795;SDS011;40693;43.884;20.340;2023-09-19T01:00:03;14.15;;;10.85;;
54795;SDS011;40693;43.884;20.340;2023-09-19T01:02:32;17.10;;;10.93;;
54795;SDS011;40693;43.884;20.340;2023-09-19T01:04:58;12.93;;;9.85;;
54795;SDS011;40693;43.884;20.340;2023-09-19T01:07:29;18.58;;;10.35;;
54795;SDS011;40693;43.884;20.340;2023-09-19T01:09:57;10.23;;;8.88;;
54795;SDS011;40693;43.884;20.340;2023-09-19T01:12:30;16.10;;;9.68;;
54795;SDS011;40693;43.884;20.340;2023-09-19T01:15:12;15.75;;;11.15;;
54795;SDS011;40693;43.884;20.340;2023-09-19T01:31:33;24.65;;;18.58;;
54795;SDS011;40693;43.884;20.340;2023-09-19T01:34:03;18.33;;;15.02;;
54795;SDS011;40693;43.884;20.340;2023-09-19T01:36:34;19.55;;;12.52;;
54795;SDS011;40693;43.884;20.340;2023-09-19T01:39:02;15.60;;;11.10;;
54795;SDS011;40693;43.884;20.340;2023-09-19T01:44:44;13.00;;;10.52;;
54795;SDS011;40693;43.884;20.340;2023-09-19T01:47:19;11.88;;;10.13;;
54795;SDS011;40693;43.884;20.340;2023-09-19T01:49:59;11.85;;;9.43;;
54795;SDS011;40693;43.884;20.340;2023-09-19T01:52:47;15.30;;;10.98;;
54795;SDS011;40693;43.884;20.340;2023-09-19T01:55:19;15.20;;;10.48;;
54795;SDS011;40693;43.884;20.340;2023-09-19T02:00:34;12.85;;;9.82;;
54795;SDS011;40693;43.884;20.340;2023-09-19T02:03:03;15.60;;;12.15;;
54795;SDS011;40693;43.884;20.340;2023-09-19T02:05:29;16.10;;;11.60;;
54795;SDS011;40693;43.884;20.340;2023-09-19T02:07:55;16.75;;;10.10;;
54795;SDS011;40693;43.884;20.340;2023-09-19T02:10:21;16.45;;;11.55;;
54795;SDS011;40693;43.884;20.340;2023-09-19T02:12:48;14.85;;;11.80;;
54795;SDS011;40693;43.884;20.340;2023-09-19T02:15:15;21.33;;;12.73;;
54795;SDS011;40693;43.884;20.340;2023-09-19T02:17:41;14.20;;;11.27;;
54795;SDS011;40693;43.884;20.340;2023-09-19T02:20:11;16.92;;;12.10;;
54795;SDS011;40693;43.884;20.340;2023-09-19T02:22:40;16.95;;;11.77;;
54795;SDS011;40693;43.884;20.340;2023-09-19T02:25:09;16.73;;;12.68;;
54795;SDS011;40693;43.884;20.340;2023-09-19T02:27:36;13.68;;;10.95;;
54795;SDS011;40693;43.884;20.340;2023-09-19T02:30:02;15.38;;;11.18;;
54795;SDS011;40693;43.884;20.340;2023-09-19T02:32:29;17.23;;;11.40;;
54795;SDS011;40693;43.884;20.340;2023-09-19T02:34:56;13.68;;;11.18;;
54795;SDS011;40693;43.884;20.340;2023-09-19T02:37:23;13.80;;;10.77;;
54795;SDS011;40693;43.884;20.340;2023-09-19T02:39:49;13.98;;;11.15;;
54795;SDS011;40693;43.884;20.340;2023-09-19T02:42:15;14.02;;;11.27;;
54795;SDS011;40693;43.884;20.340;2023-09-19T02:44:41;11.80;;;9.68;;
54795;SDS011;40693;43.884;20.340;2023-09-19T02:47:07;14.00;;;11.35;;
54795;SDS011;40693;43.884;20.340;2023-09-19T02:49:32;16.23;;;12.70;;
54795;SDS011;40693;43.884;20.340;2023-09-19T02:51:58;13.93;;;11.98;;
54795;SDS011;40693;43.884;20.340;2023-09-19T02:54:24;14.90;;;11.13;;
54795;SDS011;40693;43.884;20.340;2023-09-19T02:56:50;13.00;;;10.32;;
54795;SDS011;40693;43.884;20.340;2023-09-19T02:59:16;16.98;;;10.73;;
54795;SDS011;40693;43.884;20.340;2023-09-19T03:01:44;14.95;;;11.65;;
54795;SDS011;40693;43.884;20.340;2023-09-19T03:04:13;12.85;;;10.32;;
54795;SDS011;40693;43.884;20.340;2023-09-19T03:06:44;12.20;;;10.90;;
54795;SDS011;40693;43.884;20.340;2023-09-19T03:09:10;11.82;;;10.60;;
54795;SDS011;40693;43.884;20.340;2023-09-19T03:11:36;13.07;;;11.48;;
54795;SDS011;40693;43.884;20.340;2023-09-19T03:14:05;13.13;;;10.07;;
54795;SDS011;40693;43.884;20.340;2023-09-19T03:16:31;14.73;;;11.63;;
54795;SDS011;40693;43.884;20.340;2023-09-19T03:18:58;19.15;;;11.57;;
54795;SDS011;40693;43.884;20.340;2023-09-19T03:21:25;17.15;;;11.25;;
54795;SDS011;40693;43.884;20.340;2023-09-19T03:23:50;15.30;;;10.73;;
54795;SDS011;40693;43.884;20.340;2023-09-19T03:26:16;12.98;;;10.55;;
54795;SDS011;40693;43.884;20.340;2023-09-19T03:28:42;11.43;;;9.73;;
54795;SDS011;40693;43.884;20.340;2023-09-19T03:31:08;13.85;;;10.40;;
54795;SDS011;40693;43.884;20.340;2023-09-19T03:33:34;15.75;;;11.35;;
54795;SDS011;40693;43.884;20.340;2023-09-19T03:36:01;14.55;;;9.70;;
54795;SDS011;40693;43.884;20.340;2023-09-19T03:38:29;14.90;;;11.20;;
54795;SDS011;40693;43.884;20.340;2023-09-19T03:40:56;14.43;;;11.23;;
54795;SDS011;40693;43.884;20.340;2023-09-19T03:43:22;15.32;;;13.02;;
54795;SDS011;40693;43.884;20.340;2023-09-19T03:45:48;15.18;;;10.85;;
54795;SDS011;40693;43.884;20.340;2023-09-19T03:48:14;13.10;;;9.30;;
54795;SDS011;40693;43.884;20.340;2023-09-19T03:50:40;13.48;;;9.82;;
54795;SDS011;40693;43.884;20.340;2023-09-19T03:53:05;13.27;;;9.52;;
54795;SDS011;40693;43.884;20.340;2023-09-19T03:55:34;10.57;;;9.48;;
54795;SDS011;40693;43.884;20.340;2023-09-19T03:58:01;16.55;;;10.48;;
54795;SDS011;40693;43.884;20.340;2023-09-19T04:00:27;13.55;;;10.32;;
54795;SDS011;40693;43.884;20.340;2023-09-19T04:02:54;18.27;;;10.20;;
54795;SDS011;40693;43.884;20.340;2023-09-19T04:05:23;14.65;;;11.20;;
54795;SDS011;40693;43.884;20.340;2023-09-19T04:07:49;12.57;;;10.07;;
54795;SDS011;40693;43.884;20.340;2023-09-19T04:10:15;14.52;;;10.60;;
54795;SDS011;40693;43.884;20.340;2023-09-19T04:12:50;14.52;;;10.15;;
54795;SDS011;40693;43.884;20.340;2023-09-19T04:15:19;12.13;;;10.18;;
54795;SDS011;40693;43.884;20.340;2023-09-19T04:17:48;14.82;;;11.27;;
54795;SDS011;40693;43.884;20.340;2023-09-19T04:20:17;12.88;;;10.60;;
54795;SDS011;40693;43.884;20.340;2023-09-19T04:22:53;12.80;;;10.60;;
54795;SDS011;40693;43.884;20.340;2023-09-19T04:25:19;14.25;;;10.32;;
54795;SDS011;40693;43.884;20.340;2023-09-19T04:27:45;13.55;;;10.85;;
54795;SDS011;40693;43.884;20.340;2023-09-19T04:30:11;12.98;;;10.20;;
54795;SDS011;40693;43.884;20.340;2023-09-19T04:32:38;12.10;;;10.05;;
54795;SDS011;40693;43.884;20.340;2023-09-19T04:35:10;17.27;;;11.70;;
54795;SDS011;40693;43.884;20.340;2023-09-19T04:37:37;13.73;;;11.88;;
54795;SDS011;40693;43.884;20.340;2023-09-19T04:40:05;16.40;;;12.05;;
54795;SDS011;40693;43.884;20.340;2023-09-19T04:42:37;14.15;;;11.90;;
54795;SDS011;40693;43.884;20.340;2023-09-19T04:45:06;15.38;;;11.95;;
54795;SDS011;40693;43.884;20.340;2023-09-19T04:47:35;22.13;;;13.32;;
54795;SDS011;40693;43.884;20.340;2023-09-19T04:50:03;13.18;;;10.55;;
54795;SDS011;40693;43.884;20.340;2023-09-19T04:52:33;12.88;;;10.75;;
54795;SDS011;40693;43.884;20.340;2023-09-19T04:54:59;12.38;;;11.07;;
54795;SDS011;40693;43.884;20.340;2023-09-19T04:57:24;15.48;;;11.73;;
54795;SDS011;40693;43.884;20.340;2023-09-19T04:59:50;21.50;;;19.17;;
54795;SDS011;40693;43.884;20.340;2023-09-19T05:02:16;19.30;;;15.50;;
54795;SDS011;40693;43.884;20.340;2023-09-19T05:04:41;18.65;;;14.98;;
54795;SDS011;40693;43.884;20.340;2023-09-19T05:07:07;18.58;;;13.45;;
54795;SDS011;40693;43.884;20.340;2023-09-19T05:09:33;14.10;;;12.07;;
54795;SDS011;40693;43.884;20.340;2023-09-19T05:11:59;15.50;;;12.68;;
54795;SDS011;40693;43.884;20.340;2023-09-19T05:14:25;15.15;;;11.77;;
54795;SDS011;40693;43.884;20.340;2023-09-19T05:16:51;17.20;;;12.50;;
54795;SDS011;40693;43.884;20.340;2023-09-19T05:19:17;19.33;;;14.13;;
54795;SDS011;40693;43.884;20.340;2023-09-19T05:21:43;19.67;;;17.02;;
54795;SDS011;40693;43.884;20.340;2023-09-19T05:24:09;20.27;;;16.58;;
54795;SDS011;40693;43.884;20.340;2023-09-19T05:26:36;21.73;;;19.27;;
54795;SDS011;40693;43.884;20.340;2023-09-19T05:29:01;21.08;;;17.30;;
54795;SDS011;40693;43.884;20.340;2023-09-19T05:31:28;23.25;;;15.73;;
54795;SDS011;40693;43.884;20.340;2023-09-19T05:33:54;16.77;;;14.50;;
54795;SDS011;40693;43.884;20.340;2023-09-19T05:36:20;19.48;;;12.48;;
54795;SDS011;40693;43.884;20.340;2023-09-19T05:38:46;15.02;;;12.65;;
54795;SDS011;40693;43.884;20.340;2023-09-19T05:41:14;16.13;;;12.00;;
54795;SDS011;40693;43.884;20.340;2023-09-19T05:43:41;23.33;;;12.13;;
54795;SDS011;40693;43.884;20.340;2023-09-19T05:46:07;18.90;;;12.80;;
54795;SDS011;40693;43.884;20.340;2023-09-19T05:48:33;19.15;;;12.43;;
54795;SDS011;40693;43.884;20.340;2023-09-19T05:50:59;15.95;;;11.25;;
54795;SDS011;40693;43.884;20.340;2023-09-19T05:53:26;13.90;;;11.25;;
54795;SDS011;40693;43.884;20.340;2023-09-19T05:55:52;17.30;;;12.30;;
54795;SDS011;40693;43.884;20.340;2023-09-19T05:58:19;18.42;;;11.07;;
54795;SDS011;40693;43.884;20.340;2023-09-19T06:00:45;20.42;;;11.77;;
54795;SDS011;40693;43.884;20.340;2023-09-19T06:03:13;14.98;;;11.30;;
54795;SDS011;40693;43.884;20.340;2023-09-19T06:05:39;19.70;;;12.00;;
54795;SDS011;40693;43.884;20.340;2023-09-19T06:08:08;21.13;;;12.80;;
54795;SDS011;40693;43.884;20.340;2023-09-19T06:10:34;16.52;;;11.32;;
54795;SDS011;40693;43.884;20.340;2023-09-19T06:13:03;18.08;;;12.15;;
54795;SDS011;40693;43.884;20.340;2023-09-19T06:15:30;13.20;;;10.82;;
54795;SDS011;40693;43.884;20.340;2023-09-19T06:17:58;14.82;;;11.05;;
54795;SDS011;40693;43.884;20.340;2023-09-19T06:20:25;17.02;;;12.27;;
54795;SDS011;40693;43.884;20.340;2023-09-19T06:22:51;16.58;;;10.85;;
54795;SDS011;40693;43.884;20.340;2023-09-19T06:25:18;13.63;;;11.43;;
54795;SDS011;40693;43.884;20.340;2023-09-19T06:28:02;16.20;;;13.07;;
54795;SDS011;40693;43.884;20.340;2023-09-19T06:30:30;14.73;;;11.35;;
54795;SDS011;40693;43.884;20.340;2023-09-19T06:32:57;15.50;;;11.00;;
54795;SDS011;40693;43.884;20.340;2023-09-19T06:35:24;13.73;;;11.07;;
54795;SDS011;40693;43.884;20.340;2023-09-19T06:37:54;16.02;;;11.52;;
54795;SDS011;40693;43.884;20.340;2023-09-19T06:40:22;12.77;;;10.73;;
54795;SDS011;40693;43.884;20.340;2023-09-19T06:42:52;13.98;;;11.32;;
54795;SDS011;40693;43.884;20.340;2023-09-19T06:45:19;15.57;;;10.80;;
54795;SDS011;40693;43.884;20.340;2023-09-19T06:47:46;15.48;;;11.57;;
54795;SDS011;40693;43.884;20.340;2023-09-19T06:50:20;19.52;;;13.38;;
54795;SDS011;40693;43.884;20.340;2023-09-19T06:52:48;17.48;;;11.73;;
54795;SDS011;40693;43.884;20.340;2023-09-19T06:55:19;17.00;;;11.50;;
54795;SDS011;40693;43.884;20.340;2023-09-19T06:57:48;13.35;;;11.05;;
54795;SDS011;40693;43.884;20.340;2023-09-19T07:00:14;14.65;;;10.75;;
54795;SDS011;40693;43.884;20.340;2023-09-19T07:02:54;19.17;;;11.93;;
54795;SDS011;40693;43.884;20.340;2023-09-19T07:05:26;15.48;;;12.20;;
54795;SDS011;40693;43.884;20.340;2023-09-19T07:07:54;15.75;;;12.20;;
54795;SDS011;40693;43.884;20.340;2023-09-19T07:10:21;15.55;;;10.63;;
54795;SDS011;40693;43.884;20.340;2023-09-19T07:12:54;15.38;;;11.57;;
54795;SDS011;40693;43.884;20.340;2023-09-19T07:15:24;14.93;;;11.05;;
54795;SDS011;40693;43.884;20.340;2023-09-19T07:17:53;15.40;;;11.25;;
54795;SDS011;40693;43.884;20.340;2023-09-19T07:20:21;19.27;;;12.20;;
54795;SDS011;40693;43.884;20.340;2023-09-19T07:22:47;16.75;;;10.90;;
54795;SDS011;40693;43.884;20.340;2023-09-19T07:25:15;17.92;;;11.60;;
54795;SDS011;40693;43.884;20.340;2023-09-19T07:27:42;18.63;;;12.38;;
54795;SDS011;40693;43.884;20.340;2023-09-19T07:30:09;16.02;;;12.02;;
54795;SDS011;40693;43.884;20.340;2023-09-19T07:32:36;17.10;;;12.20;;
54795;SDS011;40693;43.884;20.340;2023-09-19T07:35:03;14.18;;;11.25;;
54795;SDS011;40693;43.884;20.340;2023-09-19T07:37:31;16.67;;;11.80;;
54795;SDS011;40693;43.884;20.340;2023-09-19T07:40:01;15.23;;;11.43;;
54795;SDS011;40693;43.884;20.340;2023-09-19T07:42:34;15.15;;;10.45;;
54795;SDS011;40693;43.884;20.340;2023-09-19T07:45:05;16.73;;;11.30;;
54795;SDS011;40693;43.884;20.340;2023-09-19T07:47:32;16.08;;;10.77;;
54795;SDS011;40693;43.884;20.340;2023-09-19T07:49:59;16.92;;;10.63;;
54795;SDS011;40693;43.884;20.340;2023-09-19T07:52:27;16.15;;;10.68;;
54795;SDS011;40693;43.884;20.340;2023-09-19T07:54:54;14.85;;;9.55;;
54795;SDS011;40693;43.884;20.340;2023-09-19T07:57:22;12.93;;;9.75;;
54795;SDS011;40693;43.884;20.340;2023-09-19T07:59:48;14.95;;;10.43;;
54795;SDS011;40693;43.884;20.340;2023-09-19T08:02:14;15.63;;;10.00;;
54795;SDS011;40693;43.884;20.340;2023-09-19T08:04:43;13.45;;;10.52;;
54795;SDS011;40693;43.884;20.340;2023-09-19T08:07:11;17.05;;;10.80;;
54795;SDS011;40693;43.884;20.340;2023-09-19T08:09:38;16.83;;;10.70;;
54795;SDS011;40693;43.884;20.340;2023-09-19T08:12:04;13.38;;;10.35;;
54795;SDS011;40693;43.884;20.340;2023-09-19T08:14:32;20.00;;;12.18;;
54795;SDS011;40693;43.884;20.340;2023-09-19T08:16:59;18.92;;;11.93;;
54795;SDS011;40693;43.884;20.340;2023-09-19T08:19:25;16.05;;;9.90;;
54795;SDS011;40693;43.884;20.340;2023-09-19T08:21:56;16.90;;;10.68;;
54795;SDS011;40693;43.884;20.340;2023-09-19T08:24:26;12.73;;;9.55;;
54795;SDS011;40693;43.884;20.340;2023-09-19T08:26:56;13.95;;;10.18;;
54795;SDS011;40693;43.884;20.340;2023-09-19T08:29:23;18.42;;;10.68;;
54795;SDS011;40693;43.884;20.340;2023-09-19T08:31:55;12.55;;;10.90;;
54795;SDS011;40693;43.884;20.340;2023-09-19T08:34:22;14.30;;;9.38;;
54795;SDS011;40693;43.884;20.340;2023-09-19T08:36:50;18.50;;;10.05;;
54795;SDS011;40693;43.884;20.340;2023-09-19T08:39:17;16.38;;;9.80;;
54795;SDS011;40693;43.884;20.340;2023-09-19T08:41:44;15.60;;;10.18;;
54795;SDS011;40693;43.884;20.340;2023-09-19T08:44:10;15.15;;;9.55;;
54795;SDS011;40693;43.884;20.340;2023-09-19T08:46:35;17.17;;;10.88;;
54795;SDS011;40693;43.884;20.340;2023-09-19T08:49:08;14.40;;;9.77;;
54795;SDS011;40693;43.884;20.340;2023-09-19T08:51:51;16.77;;;10.98;;
54795;SDS011;40693;43.884;20.340;2023-09-19T08:54:27;13.40;;;10.35;;
54795;SDS011;40693;43.884;20.340;2023-09-19T08:56:56;10.98;;;8.57;;
54795;SDS011;40693;43.884;20.340;2023-09-19T08:59:30;13.20;;;9.05;;
54795;SDS011;40693;43.884;20.340;2023-09-19T09:01:56;13.55;;;8.35;;
54795;SDS011;40693;43.884;20.340;2023-09-19T09:04:22;16.25;;;11.40;;
54795;SDS011;40693;43.884;20.340;2023-09-19T09:06:51;16.10;;;9.95;;
54795;SDS011;40693;43.884;20.340;2023-09-19T09:09:20;13.70;;;10.30;;
54795;SDS011;40693;43.884;20.340;2023-09-19T09:11:46;17.08;;;10.18;;
54795;SDS011;40693;43.884;20.340;2023-09-19T09:14:16;14.68;;;10.93;;
54795;SDS011;40693;43.884;20.340;2023-09-19T09:16:43;18.38;;;10.82;;
54795;SDS011;40693;43.884;20.340;2023-09-19T09:19:10;16.20;;;11.27;;
54795;SDS011;40693;43.884;20.340;2023-09-19T09:21:37;14.35;;;9.93;;
54795;SDS011;40693;43.884;20.340;2023-09-19T09:27:31;13.52;;;10.32;;
54795;SDS011;40693;43.884;20.340;2023-09-19T09:29:59;14.68;;;10.70;;
54795;SDS011;40693;43.884;20.340;2023-09-19T09:32:25;18.65;;;10.35;;
54795;SDS011;40693;43.884;20.340;2023-09-19T09:34:57;13.77;;;10.40;;
54795;SDS011;40693;43.884;20.340;2023-09-19T09:37:24;18.48;;;11.88;;
54795;SDS011;40693;43.884;20.340;2023-09-19T09:39:56;15.27;;;9.85;;
54795;SDS011;40693;43.884;20.340;2023-09-19T09:42:37;15.32;;;9.85;;
54795;SDS011;40693;43.884;20.340;2023-09-19T09:48:02;13.52;;;10.63;;
54795;SDS011;40693;43.884;20.340;2023-09-19T09:50:32;16.58;;;10.32;;
54795;SDS011;40693;43.884;20.340;2023-09-19T09:56:02;12.85;;;9.15;;
54795;SDS011;40693;43.884;20.340;2023-09-19T09:58:40;12.95;;;10.02;;
54795;SDS011;40693;43.884;20.340;2023-09-19T10:01:17;14.90;;;10.60;;
54795;SDS011;40693;43.884;20.340;2023-09-19T10:03:43;15.32;;;10.75;;
54795;SDS011;40693;43.884;20.340;2023-09-19T10:06:14;20.10;;;10.48;;
54795;SDS011;40693;43.884;20.340;2023-09-19T10:09:02;15.05;;;10.23;;
54795;SDS011;40693;43.884;20.340;2023-09-19T10:12:03;12.07;;;10.75;;
54795;SDS011;40693;43.884;20.340;2023-09-19T10:14:42;14.02;;;10.77;;
54795;SDS011;40693;43.884;20.340;2023-09-19T10:17:12;16.95;;;10.90;;
54795;SDS011;40693;43.884;20.340;2023-09-19T10:19:42;15.40;;;11.02;;
54795;SDS011;40693;43.884;20.340;2023-09-19T10:22:16;16.02;;;11.57;;
54795;SDS011;40693;43.884;20.340;2023-09-19T10:24:47;14.15;;;11.18;;
54795;SDS011;40693;43.884;20.340;2023-09-19T10:27:17;14.05;;;11.00;;
54795;SDS011;40693;43.884;20.340;2023-09-19T10:29:50;17.67;;;10.73;;
54795;SDS011;40693;43.884;20.340;2023-09-19T10:32:21;16.17;;;10.40;;
54795;SDS011;40693;43.884;20.340;2023-09-19T10:34:48;16.20;;;10.25;;
54795;SDS011;40693;43.884;20.340;2023-09-19T10:37:18;16.92;;;10.82;;
54795;SDS011;40693;43.884;20.340;2023-09-19T10:39:47;12.57;;;10.68;;
54795;SDS011;40693;43.884;20.340;2023-09-19T10:42:16;16.55;;;11.35;;
54795;SDS011;40693;43.884;20.340;2023-09-19T10:44:45;15.73;;;12.10;;
54795;SDS011;40693;43.884;20.340;2023-09-19T10:47:18;16.70;;;10.10;;
54795;SDS011;40693;43.884;20.340;2023-09-19T10:49:45;14.82;;;11.73;;
54795;SDS011;40693;43.884;20.340;2023-09-19T10:52:12;17.00;;;10.98;;
54795;SDS011;40693;43.884;20.340;2023-09-19T10:54:45;17.55;;;11.93;;
54795;SDS011;40693;43.884;20.340;2023-09-19T10:57:23;16.75;;;11.15;;
54795;SDS011;40693;43.884;20.340;2023-09-19T11:00:02;15.02;;;10.40;;
54795;SDS011;40693;43.884;20.340;2023-09-19T11:05:40;14.75;;;11.98;;
54795;SDS011;40693;43.884;20.340;2023-09-19T11:08:09;15.18;;;10.43;;
54795;SDS011;40693;43.884;20.340;2023-09-19T11:10:46;13.40;;;10.30;;
54795;SDS011;40693;43.884;20.340;2023-09-19T11:13:29;16.70;;;11.82;;
54795;SDS011;40693;43.884;20.340;2023-09-19T11:16:03;17.48;;;10.32;;
54795;SDS011;40693;43.884;20.340;2023-09-19T11:26:57;13.15;;;11.18;;
54795;SDS011;40693;43.884;20.340;2023-09-19T11:29:38;14.50;;;9.85;;
54795;SDS011;40693;43.884;20.340;2023-09-19T11:32:05;15.18;;;8.85;;
54795;SDS011;40693;43.884;20.340;2023-09-19T11:39:37;14.90;;;10.48;;
54795;SDS011;40693;43.884;20.340;2023-09-19T11:48:20;12.05;;;10.00;;
54795;SDS011;40693;43.884;20.340;2023-09-19T11:50:50;15.13;;;8.80;;
54795;SDS011;40693;43.884;20.340;2023-09-19T11:53:17;14.48;;;9.93;;
54795;SDS011;40693;43.884;20.340;2023-09-19T11:55:45;13.40;;;10.30;;
54795;SDS011;40693;43.884;20.340;2023-09-19T11:58:20;15.00;;;9.35;;
54795;SDS011;40693;43.884;20.340;2023-09-19T12:00:46;15.55;;;10.48;;
54795;SDS011;40693;43.884;20.340;2023-09-19T12:03:24;13.60;;;9.20;;
54795;SDS011;40693;43.884;20.340;2023-09-19T12:05:55;15.45;;;9.98;;
54795;SDS011;40693;43.884;20.340;2023-09-19T12:08:22;16.83;;;10.90;;
54795;SDS011;40693;43.884;20.340;2023-09-19T12:10:48;16.67;;;10.77;;
54795;SDS011;40693;43.884;20.340;2023-09-19T12:13:19;14.07;;;9.90;;
54795;SDS011;40693;43.884;20.340;2023-09-19T12:15:46;15.30;;;10.40;;
54795;SDS011;40693;43.884;20.340;2023-09-19T12:18:29;10.82;;;9.73;;
54795;SDS011;40693;43.884;20.340;2023-09-19T12:20:55;12.23;;;9.32;;
54795;SDS011;40693;43.884;20.340;2023-09-19T12:23:23;13.25;;;9.85;;
54795;SDS011;40693;43.884;20.340;2023-09-19T12:25:50;18.30;;;9.38;;
54795;SDS011;40693;43.884;20.340;2023-09-19T12:28:18;15.35;;;9.20;;
54795;SDS011;40693;43.884;20.340;2023-09-19T12:30:43;16.77;;;9.57;;
54795;SDS011;40693;43.884;20.340;2023-09-19T12:33:17;14.65;;;8.57;;
54795;SDS011;40693;43.884;20.340;2023-09-19T12:35:51;10.75;;;8.75;;
54795;SDS011;40693;43.884;20.340;2023-09-19T12:38:23;14.38;;;8.63;;
54795;SDS011;40693;43.884;20.340;2023-09-19T12:41:01;18.63;;;9.40;;
54795;SDS011;40693;43.884;20.340;2023-09-19T12:43:30;14.05;;;9.27;;
54795;SDS011;40693;43.884;20.340;2023-09-19T12:46:04;17.77;;;10.27;;
54795;SDS011;40693;43.884;20.340;2023-09-19T12:48:30;12.77;;;10.02;;
54795;SDS011;40693;43.884;20.340;2023-09-19T12:53:36;14.63;;;9.50;;
54795;SDS011;40693;43.884;20.340;2023-09-19T12:56:07;16.55;;;8.93;;
54795;SDS011;40693;43.884;20.340;2023-09-19T12:58:34;18.02;;;9.55;;
54795;SDS011;40693;43.884;20.340;2023-09-19T13:01:14;13.30;;;9.00;;
54795;SDS011;40693;43.884;20.340;2023-09-19T13:03:41;15.10;;;9.32;;
54795;SDS011;40693;43.884;20.340;2023-09-19T13:06:07;10.13;;;8.20;;
54795;SDS011;40693;43.884;20.340;2023-09-19T13:08:35;16.45;;;9.93;;
54795;SDS011;40693;43.884;20.340;2023-09-19T13:11:10;18.05;;;10.07;;
54795;SDS011;40693;43.884;20.340;2023-09-19T13:25:27;18.40;;;9.65;;
54795;SDS011;40693;43.884;20.340;2023-09-19T13:27:55;14.68;;;8.85;;
54795;SDS011;40693;43.884;20.340;2023-09-19T13:30:23;11.10;;;8.57;;
54795;SDS011;40693;43.884;20.340;2023-09-19T13:32:50;17.98;;;11.23;;
54795;SDS011;40693;43.884;20.340;2023-09-19T13:35:18;23.65;;;9.07;;
54795;SDS011;40693;43.884;20.340;2023-09-19T13:37:45;19.38;;;9.55;;
54795;SDS011;40693;43.884;20.340;2023-09-19T13:40:14;18.92;;;8.73;;
54795;SDS011;40693;43.884;20.340;2023-09-19T13:42:40;24.83;;;8.48;;
54795;SDS011;40693;43.884;20.340;2023-09-19T13:45:07;19.02;;;8.48;;
54795;SDS011;40693;43.884;20.340;2023-09-19T13:47:37;34.35;;;10.18;;
54795;SDS011;40693;43.884;20.340;2023-09-19T13:50:04;29.42;;;12.25;;
54795;SDS011;40693;43.884;20.340;2023-09-19T13:52:31;23.17;;;9.25;;
54795;SDS011;40693;43.884;20.340;2023-09-19T13:54:57;30.08;;;9.40;;
54795;SDS011;40693;43.884;20.340;2023-09-19T13:57:23;31.33;;;9.60;;
54795;SDS011;40693;43.884;20.340;2023-09-19T13:59:49;22.10;;;9.15;;
54795;SDS011;40693;43.884;20.340;2023-09-19T14:02:16;20.23;;;8.73;;
54795;SDS011;40693;43.884;20.340;2023-09-19T14:04:43;31.40;;;10.75;;
54795;SDS011;40693;43.884;20.340;2023-09-19T14:07:10;23.05;;;8.43;;
54795;SDS011;40693;43.884;20.340;2023-09-19T14:09:36;26.50;;;10.77;;
54795;SDS011;40693;43.884;20.340;2023-09-19T14:12:02;24.50;;;9.13;;
54795;SDS011;40693;43.884;20.340;2023-09-19T14:14:28;19.45;;;8.55;;
54795;SDS011;40693;43.884;20.340;2023-09-19T14:16:54;20.30;;;8.13;;
54795;SDS011;40693;43.884;20.340;2023-09-19T14:19:20;17.30;;;7.47;;
54795;SDS011;40693;43.884;20.340;2023-09-19T14:21:46;18.58;;;7.57;;
54795;SDS011;40693;43.884;20.340;2023-09-19T14:24:18;23.95;;;7.50;;
54795;SDS011;40693;43.884;20.340;2023-09-19T14:26:45;21.50;;;8.70;;
54795;SDS011;40693;43.884;20.340;2023-09-19T14:29:11;22.02;;;6.85;;
54795;SDS011;40693;43.884;20.340;2023-09-19T14:31:37;14.32;;;6.57;;
54795;SDS011;40693;43.884;20.340;2023-09-19T14:34:05;19.13;;;6.97;;
54795;SDS011;40693;43.884;20.340;2023-09-19T14:36:31;21.00;;;7.22;;
54795;SDS011;40693;43.884;20.340;2023-09-19T14:38:58;26.38;;;7.63;;
54795;SDS011;40693;43.884;20.340;2023-09-19T14:41:24;16.92;;;6.95;;
54795;SDS011;40693;43.884;20.340;2023-09-19T14:43:54;18.00;;;8.20;;
54795;SDS011;40693;43.884;20.340;2023-09-19T14:46:23;15.55;;;6.90;;
54795;SDS011;40693;43.884;20.340;2023-09-19T14:48:52;20.63;;;6.90;;
54795;SDS011;40693;43.884;20.340;2023-09-19T14:51:18;27.17;;;8.45;;
54795;SDS011;40693;43.884;20.340;2023-09-19T14:53:44;17.65;;;7.65;;
54795;SDS011;40693;43.884;20.340;2023-09-19T14:56:14;16.00;;;7.82;;
54795;SDS011;40693;43.884;20.340;2023-09-19T14:58:43;16.48;;;8.32;;
54795;SDS011;40693;43.884;20.340;2023-09-19T15:01:09;19.25;;;8.18;;
54795;SDS011;40693;43.884;20.340;2023-09-19T15:03:37;20.95;;;7.55;;
54795;SDS011;40693;43.884;20.340;2023-09-19T15:06:05;20.63;;;7.97;;
54795;SDS011;40693;43.884;20.340;2023-09-19T15:08:34;19.27;;;9.05;;
54795;SDS011;40693;43.884;20.340;2023-09-19T15:11:12;19.55;;;8.70;;
54795;SDS011;40693;43.884;20.340;2023-09-19T15:13:38;22.50;;;11.13;;
54795;SDS011;40693;43.884;20.340;2023-09-19T15:16:07;21.45;;;9.23;;
54795;SDS011;40693;43.884;20.340;2023-09-19T15:21:03;18.27;;;9.65;;
54795;SDS011;40693;43.884;20.340;2023-09-19T15:23:32;19.23;;;10.18;;
54795;SDS011;40693;43.884;20.340;2023-09-19T15:26:09;24.98;;;10.73;;
54795;SDS011;40693;43.884;20.340;2023-09-19T15:28:36;38.90;;;10.32;;
54795;SDS011;40693;43.884;20.340;2023-09-19T15:31:07;14.07;;;9.00;;